Time;durP1;ratioP1;P1;durP2;ratioP2;P2;SDS_P1;SDS_P2;PMS_P1;PMS_P2;Temp;Humidity;BMP_temperature;BMP_pressure;BME280_temperature;BME280_humidity;BME280_pressure;Samples;Min_cycle;Max_cycle;Signal;HPM_P1;HPM_P2
2023/10/23 00:00:16;;;;;;;14.45;13.05;;;24.00;95.30;;;;;;6302036;27;85488;-72
2023/10/23 00:03:18;;;;;;;14.23;12.82;;;24.00;95.40;;;;;;6291942;27;84017;-73
2023/10/23 00:06:21;;;;;;;13.88;12.57;;;24.00;95.30;;;;;;6299053;27;84017;-72
2023/10/23 00:09:23;;;;;;;13.95;12.55;;;24.00;95.40;;;;;;6290096;27;84025;-73
2023/10/23 00:12:25;;;;;;;14.07;12.68;;;24.00;95.30;;;;;;6293748;27;84073;-72
2023/10/23 00:15:27;;;;;;;14.60;13.20;;;24.00;95.40;;;;;;6306070;27;84228;-72
2023/10/23 00:18:29;;;;;;;13.98;12.60;;;24.00;95.40;;;;;;6298885;27;84108;-73
2023/10/23 00:21:32;;;;;;;13.32;12.02;;;24.00;95.40;;;;;;6309049;27;83263;-73
2023/10/23 00:24:34;;;;;;;13.80;12.40;;;24.00;95.40;;;;;;6286523;27;84002;-72
2023/10/23 00:27:36;;;;;;;13.55;12.25;;;24.00;95.40;;;;;;6301506;27;84041;-72
2023/10/23 00:30:38;;;;;;;13.02;11.73;;;24.00;95.40;;;;;;6297402;27;85050;-72
2023/10/23 00:33:41;;;;;;;13.65;12.25;;;23.90;95.20;;;;;;6304280;27;83981;-73
2023/10/23 00:36:45;;;;;;;13.18;11.88;;;23.90;95.30;;;;;;6296294;27;83866;-72
2023/10/23 00:39:46;;;;;;;13.43;12.07;;;24.00;95.30;;;;;;6292560;27;86044;-72
2023/10/23 00:42:48;;;;;;;12.90;11.63;;;23.90;95.30;;;;;;6301533;27;83876;-72
2023/10/23 00:45:53;;;;;;;13.48;12.07;;;23.90;95.30;;;;;;6290181;27;84140;-72
2023/10/23 00:48:56;;;;;;;13.43;12.15;;;23.90;95.30;;;;;;6296470;27;84067;-73
2023/10/23 00:52:01;;;;;;;12.02;10.93;;;23.90;95.30;;;;;;6296669;27;85619;-72
2023/10/23 00:55:03;;;;;;;12.75;11.55;;;23.90;95.30;;;;;;6293834;27;83253;-72
2023/10/23 00:58:08;;;;;;;12.32;11.20;;;23.90;95.30;;;;;;6290954;27;84000;-72
2023/10/23 01:01:12;;;;;;;13.15;11.75;;;23.90;95.30;;;;;;6297585;27;85303;-72
2023/10/23 01:04:14;;;;;;;12.05;10.85;;;23.90;95.30;;;;;;6304414;27;83954;-73
2023/10/23 01:07:17;;;;;;;11.60;10.50;;;23.90;95.30;;;;;;6287602;27;83853;-72
2023/10/23 01:10:19;;;;;;;12.25;11.05;;;23.90;95.30;;;;;;6300956;27;84049;-71
2023/10/23 01:13:21;;;;;;;11.93;10.75;;;23.90;95.30;;;;;;6303196;27;84036;-72
2023/10/23 01:16:23;;;;;;;11.52;10.43;;;23.90;95.30;;;;;;6298444;27;84329;-73
2023/10/23 01:19:25;;;;;;;11.38;10.27;;;23.90;95.30;;;;;;6300433;27;84004;-73
2023/10/23 01:22:28;;;;;;;11.65;10.55;;;23.80;95.20;;;;;;6307582;27;84608;-73
2023/10/23 01:25:32;;;;;;;12.02;10.85;;;23.90;95.20;;;;;;6299103;27;84279;-72
2023/10/23 01:28:34;;;;;;;11.63;10.52;;;23.80;95.20;;;;;;6298603;27;84599;-72
2023/10/23 01:31:36;;;;;;;11.02;9.93;;;23.90;95.30;;;;;;6294990;27;85033;-73
2023/10/23 01:34:38;;;;;;;11.73;10.55;;;23.80;95.20;;;;;;6301836;27;83982;-73
2023/10/23 01:37:41;;;;;;;10.57;9.48;;;23.90;95.30;;;;;;6291245;27;84030;-73
2023/10/23 01:40:45;;;;;;;11.23;10.13;;;23.80;95.20;;;;;;6311311;27;84066;-73
2023/10/23 01:43:46;;;;;;;11.20;10.10;;;23.80;95.20;;;;;;6311894;27;84328;-72
2023/10/23 01:46:48;;;;;;;10.85;9.85;;;23.80;95.30;;;;;;6295174;27;83956;-73
2023/10/23 01:49:51;;;;;;;11.18;10.00;;;23.80;95.30;;;;;;6300504;27;83443;-73
2023/10/23 01:52:53;;;;;;;10.55;9.50;;;23.80;95.30;;;;;;6286706;27;83538;-73
2023/10/23 01:55:56;;;;;;;10.70;9.60;;;23.80;95.30;;;;;;6312188;27;84029;-73
2023/10/23 01:58:58;;;;;;;10.90;9.80;;;23.80;95.30;;;;;;6302039;27;83965;-73
2023/10/23 02:02:00;;;;;;;10.15;9.20;;;23.80;95.30;;;;;;6299994;27;84755;-73
2023/10/23 02:05:03;;;;;;;10.20;9.20;;;23.80;95.20;;;;;;6305076;27;83904;-73
2023/10/23 02:08:05;;;;;;;10.05;9.15;;;23.80;95.20;;;;;;6306779;27;84011;-74
2023/10/23 02:11:09;;;;;;;9.55;8.65;;;23.80;95.20;;;;;;6312139;27;83427;-72
2023/10/23 02:14:12;;;;;;;9.98;8.98;;;23.80;95.20;;;;;;6300928;27;83934;-73
2023/10/23 02:17:13;;;;;;;10.05;9.05;;;23.80;95.20;;;;;;6306455;27;84040;-74
2023/10/23 02:20:15;;;;;;;9.90;9.00;;;23.70;95.10;;;;;;6308214;27;85301;-73
2023/10/23 02:23:18;;;;;;;9.55;8.55;;;23.70;95.20;;;;;;6289000;27;83289;-72
2023/10/23 02:26:21;;;;;;;9.73;8.82;;;23.70;95.20;;;;;;6302494;27;84245;-73
2023/10/23 02:29:23;;;;;;;9.38;8.48;;;23.70;95.20;;;;;;6299069;27;82717;-73
2023/10/23 02:32:25;;;;;;;9.18;8.27;;;23.70;95.20;;;;;;6310003;27;84962;-74
2023/10/23 02:35:27;;;;;;;9.35;8.43;;;23.70;95.20;;;;;;6296440;27;84035;-74
2023/10/23 02:38:29;;;;;;;9.52;8.50;;;23.70;95.20;;;;;;6285906;27;84049;-73
2023/10/23 02:41:32;;;;;;;9.30;8.40;;;23.70;95.20;;;;;;6288443;27;84024;-73
2023/10/23 02:44:35;;;;;;;8.73;7.93;;;23.70;95.20;;;;;;6287486;27;84026;-73
2023/10/23 02:47:37;;;;;;;8.57;7.78;;;23.70;95.20;;;;;;6298571;27;82901;-74
2023/10/23 02:50:39;;;;;;;9.38;8.48;;;23.70;95.20;;;;;;6285332;27;84047;-73
2023/10/23 02:53:41;;;;;;;9.10;8.13;;;23.70;95.20;;;;;;6286696;27;83293;-74
2023/10/23 02:56:47;;;;;;;8.93;8.02;;;23.70;95.20;;;;;;6303214;27;83949;-74
2023/10/23 02:59:49;;;;;;;8.50;7.70;;;23.70;95.20;;;;;;6297896;27;82889;-72
2023/10/23 03:02:51;;;;;;;8.30;7.53;;;23.70;95.10;;;;;;6294006;27;84957;-73
2023/10/23 03:05:53;;;;;;;8.70;7.82;;;23.70;95.20;;;;;;6301544;27;84032;-73
2023/10/23 03:08:55;;;;;;;8.10;7.30;;;23.70;95.20;;;;;;6309635;27;84009;-74
2023/10/23 03:11:58;;;;;;;8.32;7.53;;;23.60;95.10;;;;;;6297333;27;82906;-73
2023/10/23 03:15:01;;;;;;;8.15;7.35;;;23.70;95.20;;;;;;6309746;27;82968;-73
2023/10/23 03:18:05;;;;;;;8.13;7.32;;;23.70;95.20;;;;;;6311261;27;84392;-74
2023/10/23 03:21:07;;;;;;;8.15;7.35;;;23.70;95.20;;;;;;6306148;27;83203;-74
2023/10/23 03:24:09;;;;;;;8.07;7.32;;;23.60;95.20;;;;;;6289295;27;83588;-73
2023/10/23 03:27:13;;;;;;;8.60;7.65;;;23.60;95.20;;;;;;6309265;27;84061;-73
2023/10/23 03:30:15;;;;;;;8.20;7.40;;;23.60;95.20;;;;;;6289236;27;83938;-73
2023/10/23 03:33:17;;;;;;;8.00;7.20;;;23.60;95.20;;;;;;6299329;27;84922;-72
2023/10/23 03:36:19;;;;;;;7.63;6.93;;;23.60;95.20;;;;;;6310396;27;84024;-73
2023/10/23 03:39:21;;;;;;;7.38;6.68;;;23.60;95.20;;;;;;6300979;27;82813;-72
2023/10/23 03:42:24;;;;;;;7.30;6.60;;;23.60;95.10;;;;;;6298534;27;83976;-73
2023/10/23 03:45:26;;;;;;;6.93;6.22;;;23.60;95.10;;;;;;6290435;27;84026;-73
2023/10/23 03:48:28;;;;;;;7.18;6.47;;;23.60;95.10;;;;;;6292575;27;82853;-73
2023/10/23 03:51:30;;;;;;;7.55;6.75;;;23.60;95.10;;;;;;6296134;27;83988;-72
2023/10/23 03:54:32;;;;;;;7.72;6.72;;;23.60;95.20;;;;;;6288028;27;83336;-72
2023/10/23 03:57:35;;;;;;;7.60;6.53;;;23.60;95.20;;;;;;6296651;27;82876;-73
2023/10/23 04:00:37;;;;;;;7.18;6.47;;;23.60;95.20;;;;;;6296681;27;84021;-72
2023/10/23 04:03:39;;;;;;;6.75;6.15;;;23.60;95.20;;;;;;6298382;27;84897;-73
2023/10/23 04:06:41;;;;;;;7.57;6.28;;;23.60;95.20;;;;;;6296555;27;84015;-73
2023/10/23 04:09:43;;;;;;;7.03;6.32;;;23.60;95.20;;;;;;6285156;27;84406;-73
2023/10/23 04:12:46;;;;;;;7.35;6.20;;;23.60;95.10;;;;;;6298101;27;83966;-73
2023/10/23 04:15:55;;;;;;;6.57;5.97;;;23.60;94.80;;;;;;6290123;27;84047;-73
2023/10/23 04:18:57;;;;;;;6.15;5.55;;;23.60;94.20;;;;;;6310135;27;84269;-74
2023/10/23 04:21:59;;;;;;;7.38;5.72;;;23.60;94.00;;;;;;6299681;27;84048;-73
2023/10/23 04:25:01;;;;;;;6.65;5.85;;;23.60;94.10;;;;;;6309151;27;83244;-73
2023/10/23 04:28:04;;;;;;;6.22;5.68;;;23.70;94.20;;;;;;6308394;27;84373;-74
2023/10/23 04:31:06;;;;;;;5.60;5.10;;;23.70;94.00;;;;;;6292044;27;82863;-73
2023/10/23 04:34:09;;;;;;;6.13;5.53;;;23.70;94.00;;;;;;6295950;27;85047;-74
2023/10/23 04:37:11;;;;;;;6.25;5.65;;;23.70;93.90;;;;;;6300499;27;82937;-73
2023/10/23 04:40:13;;;;;;;6.13;5.30;;;23.80;93.90;;;;;;6284322;27;84077;-74
2023/10/23 04:43:16;;;;;;;7.35;5.85;;;23.80;93.80;;;;;;6292751;27;83999;-74
2023/10/23 04:46:18;;;;;;;5.80;5.30;;;23.80;93.80;;;;;;6293319;27;83978;-73
2023/10/23 04:49:20;;;;;;;5.50;5.00;;;23.80;93.80;;;;;;6307498;27;84256;-73
2023/10/23 04:52:23;;;;;;;6.53;5.60;;;23.90;93.80;;;;;;6306307;27;84161;-75
2023/10/23 04:55:25;;;;;;;5.50;4.90;;;23.90;93.80;;;;;;6284386;27;83930;-74
2023/10/23 04:58:29;;;;;;;6.22;5.57;;;23.90;93.70;;;;;;6297191;27;82899;-74
2023/10/23 05:01:31;;;;;;;5.32;4.82;;;23.90;93.70;;;;;;6296067;27;82951;-73
2023/10/23 05:04:33;;;;;;;5.93;4.80;;;23.90;93.60;;;;;;6288959;27;84904;-74
2023/10/23 05:07:35;;;;;;;5.32;4.82;;;23.90;93.60;;;;;;6305745;27;83230;-74
2023/10/23 05:10:37;;;;;;;5.55;4.82;;;23.90;93.60;;;;;;6306980;27;83983;-74
2023/10/23 05:13:40;;;;;;;5.32;4.82;;;23.90;93.50;;;;;;6294307;27;83242;-74
2023/10/23 05:16:42;;;;;;;5.45;4.90;;;24.00;93.50;;;;;;6294977;27;84133;-74
2023/10/23 05:19:47;;;;;;;5.03;4.53;;;24.00;93.40;;;;;;6312229;27;84207;-74
2023/10/23 05:22:49;;;;;;;4.72;4.32;;;24.00;93.40;;;;;;6300826;27;84114;-74
2023/10/23 05:25:51;;;;;;;5.00;4.50;;;24.00;93.40;;;;;;6290568;27;83336;-74
2023/10/23 05:28:55;;;;;;;5.10;4.60;;;24.00;93.40;;;;;;6296967;27;84016;-74
2023/10/23 05:31:57;;;;;;;4.85;4.30;;;24.00;93.30;;;;;;6298936;27;83958;-74
2023/10/23 05:34:59;;;;;;;5.15;4.65;;;24.10;93.40;;;;;;6288255;27;84867;-74
2023/10/23 05:38:00;;;;;;;5.75;4.68;;;24.00;93.30;;;;;;6295343;27;85127;-73
2023/10/23 05:41:03;;;;;;;4.63;4.22;;;24.10;93.30;;;;;;6290237;27;84024;-73
2023/10/23 05:44:06;;;;;;;4.82;4.32;;;24.10;93.30;;;;;;6290632;27;84060;-74
2023/10/23 05:47:08;;;;;;;4.78;4.38;;;24.10;93.30;;;;;;6290904;27;83921;-74
2023/10/23 05:50:10;;;;;;;4.50;4.10;;;24.10;93.30;;;;;;6288279;27;83022;-73
2023/10/23 05:53:12;;;;;;;4.65;4.25;;;24.10;93.30;;;;;;6290372;27;84206;-73
2023/10/23 05:56:14;;;;;;;4.63;4.20;;;24.10;93.20;;;;;;6289506;27;83375;-74
2023/10/23 05:59:18;;;;;;;4.55;4.05;;;24.10;93.20;;;;;;6310379;27;84260;-74
2023/10/23 06:02:19;;;;;;;4.63;4.22;;;24.10;93.10;;;;;;6299946;27;84379;-74
2023/10/23 06:05:21;;;;;;;4.53;4.13;;;24.20;93.10;;;;;;6287077;27;85048;-73
2023/10/23 06:08:23;;;;;;;4.53;4.13;;;24.10;93.00;;;;;;6297671;27;84039;-74
2023/10/23 06:11:25;;;;;;;4.28;3.97;;;24.20;93.00;;;;;;6298091;27;84159;-74
2023/10/23 06:14:29;;;;;;;4.53;3.90;;;24.10;93.00;;;;;;6293477;27;84411;-74
2023/10/23 06:17:31;;;;;;;4.40;4.00;;;24.10;93.00;;;;;;6296061;27;83994;-73
2023/10/23 06:20:33;;;;;;;4.28;3.88;;;24.20;93.00;;;;;;6304954;27;84331;-74
2023/10/23 06:23:37;;;;;;;4.30;3.90;;;24.20;93.00;;;;;;6294147;27;84013;-75
2023/10/23 06:26:38;;;;;;;4.20;3.80;;;24.20;93.00;;;;;;6288658;27;83612;-75
2023/10/23 06:29:42;;;;;;;4.55;4.13;;;24.20;93.00;;;;;;6287100;27;84009;-74
2023/10/23 06:32:44;;;;;;;4.60;4.20;;;24.20;93.00;;;;;;6299545;27;84063;-73
2023/10/23 06:35:46;;;;;;;3.80;3.50;;;24.20;93.00;;;;;;6287108;27;84908;-73
2023/10/23 06:38:48;;;;;;;4.20;3.80;;;24.20;93.00;;;;;;6297906;27;84311;-74
2023/10/23 06:41:52;;;;;;;4.00;3.70;;;24.20;92.90;;;;;;6291950;27;82809;-73
2023/10/23 06:44:57;;;;;;;4.07;3.67;;;24.20;92.90;;;;;;6290109;27;83985;-74
2023/10/23 06:47:59;;;;;;;4.47;4.07;;;24.20;92.90;;;;;;6299117;27;84019;-74
2023/10/23 06:51:01;;;;;;;4.20;3.80;;;24.20;92.90;;;;;;6299349;27;84113;-74
2023/10/23 06:54:03;;;;;;;3.60;3.30;;;24.20;92.90;;;;;;6292621;27;84338;-74
2023/10/23 06:57:06;;;;;;;5.15;4.05;;;24.30;92.80;;;;;;6297186;27;83325;-74
2023/10/23 07:00:11;;;;;;;4.97;4.10;;;24.30;92.80;;;;;;6297183;27;84020;-74
2023/10/23 07:03:13;;;;;;;4.13;3.80;;;24.30;92.80;;;;;;6303112;27;83991;-74
2023/10/23 07:06:15;;;;;;;3.85;3.55;;;24.30;92.80;;;;;;6298419;27;84299;-74
2023/10/23 07:09:18;;;;;;;4.20;3.80;;;24.30;92.80;;;;;;6300185;27;83976;-73
2023/10/23 07:12:20;;;;;;;3.83;3.50;;;24.30;92.80;;;;;;6289115;27;82874;-72
2023/10/23 07:15:23;;;;;;;3.97;3.67;;;24.30;92.80;;;;;;6285651;27;83081;-73
2023/10/23 07:18:29;;;;;;;3.72;3.38;;;24.30;92.80;;;;;;6302722;27;83639;-74
2023/10/23 07:21:31;;;;;;;5.05;4.10;;;24.30;93.20;;;;;;6302263;27;84589;-72
2023/10/23 07:24:33;;;;;;;3.72;3.42;;;24.30;92.80;;;;;;6287249;27;83302;-74
2023/10/23 07:27:35;;;;;;;3.92;3.53;;;24.30;92.80;;;;;;6299794;27;83270;-74
2023/10/23 07:30:38;;;;;;;3.88;3.47;;;24.40;92.80;;;;;;6285885;27;84040;-74
2023/10/23 07:33:40;;;;;;;4.15;3.75;;;24.30;92.80;;;;;;6297824;27;83970;-73
2023/10/23 07:36:42;;;;;;;4.38;3.80;;;24.30;92.80;;;;;;6299858;27;84949;-74
2023/10/23 07:39:47;;;;;;;4.35;3.72;;;24.40;92.90;;;;;;6296125;27;83992;-74
2023/10/23 07:42:49;;;;;;;3.97;3.60;;;24.40;92.90;;;;;;6300696;27;82914;-74
2023/10/23 07:45:53;;;;;;;4.47;3.90;;;24.40;92.90;;;;;;6286105;27;84368;-73
2023/10/23 07:48:55;;;;;;;3.75;3.45;;;24.40;92.80;;;;;;6298744;27;84351;-74
2023/10/23 07:51:57;;;;;;;3.80;3.50;;;24.40;92.90;;;;;;6288754;27;84108;-73
2023/10/23 07:54:59;;;;;;;3.88;3.58;;;24.50;92.90;;;;;;6293098;27;83921;-74
2023/10/23 07:58:01;;;;;;;3.90;3.50;;;24.40;92.90;;;;;;6299747;27;83666;-74
2023/10/23 08:01:09;;;;;;;3.60;3.30;;;24.40;92.80;;;;;;6300566;27;82968;-73
2023/10/23 08:04:11;;;;;;;3.53;3.22;;;24.40;93.30;;;;;;6301740;27;83930;-74
2023/10/23 08:07:13;;;;;;;3.97;3.67;;;24.40;92.90;;;;;;6300453;27;85027;-74
2023/10/23 08:10:15;;;;;;;3.85;3.50;;;24.50;92.90;;;;;;6301942;27;84071;-74
2023/10/23 08:13:17;;;;;;;4.38;3.70;;;24.50;93.00;;;;;;6305696;27;82902;-74
2023/10/23 08:16:20;;;;;;;3.83;3.42;;;24.40;92.90;;;;;;6298082;27;83929;-74
2023/10/23 08:19:23;;;;;;;3.75;3.40;;;24.50;93.00;;;;;;6305186;27;84506;-74
2023/10/23 08:22:25;;;;;;;3.80;3.50;;;24.50;93.00;;;;;;6304251;27;84004;-74
2023/10/23 08:25:27;;;;;;;3.88;3.50;;;24.50;93.00;;;;;;6295305;27;82931;-74
2023/10/23 08:28:29;;;;;;;3.75;3.45;;;24.50;93.00;;;;;;6301549;27;82135;-74
2023/10/23 08:31:32;;;;;;;3.83;3.40;;;24.50;93.10;;;;;;6294228;27;84516;-73
2023/10/23 08:34:34;;;;;;;3.47;3.17;;;24.50;93.10;;;;;;6298373;27;83227;-73
2023/10/23 08:37:36;;;;;;;3.80;3.50;;;24.50;93.10;;;;;;6303117;27;85020;-73
2023/10/23 08:40:39;;;;;;;3.63;3.33;;;24.50;93.10;;;;;;6308669;27;84778;-73
2023/10/23 08:43:41;;;;;;;3.30;3.00;;;24.50;93.20;;;;;;6299738;27;83990;-73
2023/10/23 08:46:44;;;;;;;3.35;3.05;;;24.50;93.20;;;;;;6286925;27;84483;-73
2023/10/23 08:49:49;;;;;;;3.72;3.42;;;24.60;93.20;;;;;;6303854;27;83927;-73
2023/10/23 08:52:59;;;;;;;3.85;3.42;;;24.50;93.20;;;;;;6300534;27;83744;-73
2023/10/23 08:56:04;;;;;;;3.38;3.08;;;24.50;93.30;;;;;;6286861;27;84345;-73
2023/10/23 08:59:09;;;;;;;3.40;3.10;;;24.60;93.40;;;;;;6301698;27;85677;-73
2023/10/23 09:02:12;;;;;;;3.92;3.45;;;24.50;93.40;;;;;;6306102;27;84042;-73
2023/10/23 09:05:14;;;;;;;3.22;2.92;;;24.50;93.40;;;;;;6286429;27;84150;-73
2023/10/23 09:08:18;;;;;;;3.42;2.97;;;24.50;93.40;;;;;;6284934;27;85117;-73
2023/10/23 09:11:22;;;;;;;3.30;3.00;;;24.50;93.40;;;;;;6291686;27;84077;-73
2023/10/23 09:14:25;;;;;;;3.45;3.15;;;24.60;93.40;;;;;;6296642;27;84403;-73
2023/10/23 09:17:29;;;;;;;3.63;3.30;;;24.60;93.50;;;;;;6304298;27;84028;-72
2023/10/23 09:20:31;;;;;;;3.50;3.20;;;24.50;93.40;;;;;;6309012;27;84275;-72
2023/10/23 09:23:33;;;;;;;3.30;3.00;;;24.50;93.50;;;;;;6295352;27;83998;-73
2023/10/23 09:26:35;;;;;;;3.40;3.10;;;24.60;93.50;;;;;;6284750;27;84027;-74
2023/10/23 09:29:37;;;;;;;3.35;3.05;;;24.50;93.50;;;;;;6306791;27;84311;-73
2023/10/23 09:32:41;;;;;;;3.08;2.78;;;24.60;93.60;;;;;;6295821;27;84051;-72
2023/10/23 09:35:46;;;;;;;3.10;2.80;;;24.50;93.50;;;;;;6288517;27;84132;-73
2023/10/23 09:38:58;;;;;;;3.20;2.90;;;24.60;93.60;;;;;;6289839;27;84957;-72
2023/10/23 09:42:00;;;;;;;3.42;2.80;;;24.50;93.60;;;;;;6297030;27;84099;-72
2023/10/23 09:45:04;;;;;;;3.65;2.83;;;24.60;93.60;;;;;;6289120;27;84187;-73
2023/10/23 09:48:09;;;;;;;5.07;3.38;;;24.60;93.60;;;;;;6288184;27;84185;-74
2023/10/23 09:51:14;;;;;;;3.10;2.80;;;24.60;93.60;;;;;;6298570;27;84096;-73
2023/10/23 09:54:19;;;;;;;3.10;2.80;;;24.60;93.60;;;;;;6302066;27;83969;-73
2023/10/23 09:57:29;;;;;;;2.92;2.65;;;24.70;93.70;;;;;;6312060;27;83842;-72
2023/10/23 10:00:33;;;;;;;3.28;2.80;;;24.60;93.60;;;;;;6297775;27;83204;-73
2023/10/23 10:03:40;;;;;;;2.85;2.65;;;24.60;93.60;;;;;;6298844;27;84313;-73
2023/10/23 10:06:46;;;;;;;3.47;2.70;;;24.60;93.60;;;;;;6301716;27;84316;-72
2023/10/23 10:09:54;;;;;;;3.40;3.00;;;24.60;93.60;;;;;;6304913;27;84880;-72
2023/10/23 10:13:01;;;;;;;2.80;2.60;;;24.60;93.70;;;;;;6300211;27;84017;-73
2023/10/23 10:16:04;;;;;;;3.30;2.83;;;24.60;93.60;;;;;;6288441;27;83309;-72
2023/10/23 10:19:08;;;;;;;4.30;3.13;;;24.70;93.70;;;;;;6309193;27;84302;-73
2023/10/23 10:22:18;;;;;;;3.15;2.85;;;24.60;93.70;;;;;;6299133;27;82832;-73
2023/10/23 10:25:23;;;;;;;3.15;2.85;;;24.70;93.70;;;;;;6298950;27;84746;-73
2023/10/23 10:28:27;;;;;;;2.95;2.60;;;24.70;93.70;;;;;;6293552;27;84005;-72
2023/10/23 10:31:29;;;;;;;2.83;2.53;;;24.70;93.80;;;;;;6295219;27;83574;-72
2023/10/23 10:34:34;;;;;;;2.67;2.47;;;24.70;93.80;;;;;;6310449;27;84330;-73
2023/10/23 10:37:38;;;;;;;2.75;2.55;;;24.60;93.80;;;;;;6298834;27;84250;-72
2023/10/23 10:41:00;;;;;;;3.47;2.75;;;24.70;93.80;;;;;;6310852;27;84071;-72
2023/10/23 10:44:09;;;;;;;3.15;2.70;;;24.70;93.80;;;;;;6289624;27;83977;-73
2023/10/23 10:47:15;;;;;;;2.97;2.67;;;24.70;93.80;;;;;;6287374;27;83369;-73
2023/10/23 10:50:36;;;;;;;2.70;2.50;;;24.70;93.80;;;;;;6299675;27;83109;-72
2023/10/23 10:53:42;;;;;;;2.70;2.50;;;24.70;93.80;;;;;;6292721;27;83995;-73
2023/10/23 10:56:45;;;;;;;2.70;2.50;;;24.70;93.80;;;;;;6310238;27;82923;-73
2023/10/23 10:59:47;;;;;;;2.55;2.35;;;24.70;93.80;;;;;;6304844;27;84147;-72
2023/10/23 11:02:49;;;;;;;3.00;2.38;;;24.70;93.80;;;;;;6294132;27;83221;-73
2023/10/23 11:05:56;;;;;;;2.80;2.42;;;24.70;93.80;;;;;;6293925;27;83970;-73
2023/10/23 11:08:58;;;;;;;2.63;2.42;;;24.70;93.80;;;;;;6291813;27;84118;-73
2023/10/23 11:12:00;;;;;;;2.85;2.40;;;24.70;93.80;;;;;;6305967;27;85332;-73
2023/10/23 11:15:04;;;;;;;2.60;2.38;;;24.70;93.80;;;;;;6286555;27;84163;-73
2023/10/23 11:18:06;;;;;;;2.50;2.30;;;24.70;93.80;;;;;;6297487;27;84421;-73
2023/10/23 11:21:10;;;;;;;2.55;2.35;;;24.70;93.80;;;;;;6293332;27;82857;-74
2023/10/23 11:24:13;;;;;;;2.60;2.40;;;24.70;93.80;;;;;;6295868;27;84219;-73
2023/10/23 11:27:15;;;;;;;2.97;2.42;;;24.70;93.80;;;;;;6302417;27;84035;-72
2023/10/23 11:30:17;;;;;;;2.65;2.45;;;24.70;93.80;;;;;;6287039;27;84494;-73
2023/10/23 11:33:21;;;;;;;2.38;2.17;;;24.70;93.90;;;;;;6299087;27;83311;-73
2023/10/23 11:36:28;;;;;;;2.92;2.30;;;24.70;93.90;;;;;;6311566;27;83958;-72
2023/10/23 11:39:30;;;;;;;2.55;2.30;;;24.70;93.90;;;;;;6289054;27;84685;-73
2023/10/23 11:42:48;;;;;;;2.40;2.20;;;24.70;93.90;;;;;;6285181;27;83882;-73
2023/10/23 11:45:50;;;;;;;2.40;2.20;;;24.70;93.90;;;;;;6283267;27;84051;-73
2023/10/23 11:48:52;;;;;;;2.45;2.25;;;24.70;93.90;;;;;;6306991;27;84325;-73
2023/10/23 11:51:57;;;;;;;2.40;2.20;;;24.70;93.90;;;;;;6290099;27;84050;-73
2023/10/23 11:54:59;;;;;;;2.80;2.50;;;24.70;93.90;;;;;;6295711;27;83988;-73
2023/10/23 11:58:03;;;;;;;2.72;2.40;;;24.70;93.90;;;;;;6303877;27;84030;-73
2023/10/23 12:01:05;;;;;;;2.95;2.70;;;24.70;93.90;;;;;;6295795;27;82839;-71
2023/10/23 12:04:07;;;;;;;2.90;2.60;;;24.70;93.90;;;;;;6305089;27;83189;-74
2023/10/23 12:07:10;;;;;;;3.42;3.10;;;24.70;93.70;;;;;;6297552;27;84314;-74
2023/10/23 12:10:12;;;;;;;3.60;3.30;;;24.70;93.30;;;;;;6296827;27;84004;-72
2023/10/23 12:13:17;;;;;;;3.95;3.53;;;24.70;93.10;;;;;;6290008;27;85080;-73
2023/10/23 12:16:19;;;;;;;3.78;3.45;;;24.70;93.10;;;;;;6299871;27;83997;-74
2023/10/23 12:19:21;;;;;;;6.07;4.55;;;24.70;93.10;;;;;;6286784;27;84307;-73
2023/10/23 12:22:25;;;;;;;4.60;4.15;;;24.70;93.10;;;;;;6281980;27;84028;-74
2023/10/23 12:25:27;;;;;;;4.47;4.05;;;24.70;93.00;;;;;;6298739;27;83928;-74
2023/10/23 12:28:29;;;;;;;4.60;4.20;;;24.70;93.00;;;;;;6288050;27;82877;-73
2023/10/23 12:31:32;;;;;;;4.72;4.32;;;24.70;93.10;;;;;;6289463;27;83753;-73
2023/10/23 12:34:35;;;;;;;4.82;4.35;;;24.70;93.10;;;;;;6296931;27;83273;-73
2023/10/23 12:37:39;;;;;;;5.88;4.55;;;24.70;93.00;;;;;;6296503;27;84348;-72
2023/10/23 12:40:43;;;;;;;5.28;4.78;;;24.70;93.00;;;;;;6296639;27;84098;-73
2023/10/23 12:43:45;;;;;;;5.18;4.60;;;24.70;93.00;;;;;;6288850;27;83837;-73
2023/10/23 12:46:47;;;;;;;5.53;5.03;;;24.70;93.00;;;;;;6287263;27;82720;-72
2023/10/23 12:49:49;;;;;;;5.45;4.95;;;24.70;93.10;;;;;;6296913;27;84319;-72
2023/10/23 12:52:52;;;;;;;5.68;4.90;;;24.70;93.10;;;;;;6293874;27;82834;-73
2023/10/23 12:55:54;;;;;;;5.45;4.90;;;24.70;93.00;;;;;;6305193;27;84077;-73
2023/10/23 12:58:59;;;;;;;6.63;4.85;;;24.70;93.30;;;;;;6301734;27;83984;-72
2023/10/23 13:02:02;;;;;;;6.75;4.88;;;24.70;93.50;;;;;;6287970;27;83969;-70
2023/10/23 13:05:05;;;;;;;6.75;5.22;;;24.70;93.60;;;;;;6298369;27;83303;-71
2023/10/23 13:08:08;;;;;;;5.82;4.95;;;24.70;93.90;;;;;;6295087;27;83809;-71
2023/10/23 13:11:10;;;;;;;7.00;5.30;;;24.70;94.10;;;;;;6307943;27;82948;-71
2023/10/23 13:14:12;;;;;;;6.35;5.32;;;24.70;94.00;;;;;;6303497;27;85165;-73
2023/10/23 13:17:14;;;;;;;10.63;5.85;;;24.70;94.40;;;;;;6302655;27;84073;-73
2023/10/23 13:20:16;;;;;;;7.78;5.60;;;24.70;94.40;;;;;;6300756;27;83276;-73
2023/10/23 13:23:19;;;;;;;9.60;5.72;;;24.70;94.40;;;;;;6303135;27;84106;-70
2023/10/23 13:26:23;;;;;;;6.80;5.55;;;24.70;94.50;;;;;;6298285;27;84063;-72
2023/10/23 13:29:25;;;;;;;6.60;5.60;;;24.70;94.80;;;;;;6289100;27;83229;-72
2023/10/23 13:32:27;;;;;;;8.30;5.72;;;24.70;94.70;;;;;;6294089;27;83916;-72
2023/10/23 13:35:29;;;;;;;6.88;5.78;;;24.70;94.70;;;;;;6299814;27;83342;-71
2023/10/23 13:38:33;;;;;;;7.35;5.72;;;24.70;94.60;;;;;;6287697;27;84580;-72
2023/10/23 13:41:35;;;;;;;8.82;6.95;;;24.70;94.70;;;;;;6298291;27;84287;-71
2023/10/23 13:44:37;;;;;;;8.20;6.10;;;24.70;96.10;;;;;;6288892;27;84969;-73
2023/10/23 13:47:39;;;;;;;8.10;5.68;;;25.00;95.20;;;;;;6287632;27;83972;-74
2023/10/23 13:50:41;;;;;;;9.60;6.22;;;25.30;94.40;;;;;;6287958;27;84242;-73
2023/10/23 13:53:44;;;;;;;7.35;6.45;;;25.50;93.70;;;;;;6288104;27;84313;-71
2023/10/23 13:56:47;;;;;;;8.20;5.93;;;25.60;93.40;;;;;;6303802;27;84072;-73
2023/10/23 13:59:49;;;;;;;9.52;5.60;;;25.70;93.20;;;;;;6291172;27;84093;-72
2023/10/23 14:02:51;;;;;;;6.57;5.85;;;25.60;93.20;;;;;;6287257;27;83997;-72
2023/10/23 14:05:53;;;;;;;8.13;6.07;;;25.50;93.10;;;;;;6290185;27;82450;-72
2023/10/23 14:08:56;;;;;;;7.40;5.90;;;25.50;93.20;;;;;;6293926;27;82919;-71
2023/10/23 14:11:58;;;;;;;6.47;5.75;;;25.50;93.20;;;;;;6304680;27;83962;-73
2023/10/23 14:15:00;;;;;;;8.27;6.07;;;25.50;93.10;;;;;;6305785;27;83952;-72
2023/10/23 14:18:02;;;;;;;8.80;5.72;;;25.40;93.10;;;;;;6309291;27;84350;-72
2023/10/23 14:21:06;;;;;;;6.93;5.90;;;25.40;93.00;;;;;;6312558;27;84090;-72
2023/10/23 14:24:09;;;;;;;8.05;6.18;;;25.40;93.00;;;;;;6291330;27;84075;-72
2023/10/23 14:27:11;;;;;;;6.72;6.00;;;25.40;93.50;;;;;;6304731;27;84083;-72
2023/10/23 14:30:14;;;;;;;7.22;5.70;;;25.30;93.10;;;;;;6298429;27;85356;-72
2023/10/23 14:33:15;;;;;;;6.68;5.40;;;25.20;93.10;;;;;;6312186;27;83898;-73
2023/10/23 14:36:17;;;;;;;6.95;5.45;;;25.20;93.00;;;;;;6297560;27;85762;-71
2023/10/23 14:39:25;;;;;;;6.70;5.75;;;25.20;93.10;;;;;;6303019;27;82958;-72
2023/10/23 14:42:27;;;;;;;7.65;5.68;;;25.10;93.00;;;;;;6293496;27;84021;-73
2023/10/23 14:45:31;;;;;;;6.88;5.90;;;25.10;93.10;;;;;;6290030;27;84991;-72
2023/10/23 14:48:33;;;;;;;7.00;5.63;;;25.00;93.00;;;;;;6286747;27;83977;-72
2023/10/23 14:51:35;;;;;;;5.70;5.10;;;25.00;93.10;;;;;;6288981;27;84122;-73
2023/10/23 14:54:39;;;;;;;6.90;5.50;;;25.00;93.00;;;;;;6292278;27;83922;-72
2023/10/23 14:57:40;;;;;;;6.80;5.68;;;25.00;93.00;;;;;;6299574;27;82760;-72
2023/10/23 15:00:43;;;;;;;7.25;5.40;;;24.90;93.00;;;;;;6298765;27;83076;-72
2023/10/23 15:03:45;;;;;;;7.85;5.18;;;24.90;93.00;;;;;;6286484;27;83949;-72
2023/10/23 15:06:47;;;;;;;5.75;5.15;;;24.90;93.10;;;;;;6304284;27;82147;-72
2023/10/23 15:09:53;;;;;;;5.55;5.05;;;24.90;93.10;;;;;;6294092;27;83947;-73
2023/10/23 15:12:55;;;;;;;6.63;5.53;;;24.90;93.20;;;;;;6298787;27;82770;-72
2023/10/23 15:15:58;;;;;;;5.57;4.97;;;24.90;93.10;;;;;;6308678;27;85176;-72
2023/10/23 15:19:00;;;;;;;6.07;5.50;;;24.80;93.10;;;;;;6309892;27;84077;-72
2023/10/23 15:22:02;;;;;;;5.53;5.03;;;24.90;93.20;;;;;;6293630;27;83950;-72
2023/10/23 15:25:06;;;;;;;5.28;4.78;;;24.90;93.50;;;;;;6292790;27;82940;-71
2023/10/23 15:28:08;;;;;;;6.30;5.38;;;24.90;93.10;;;;;;6311161;27;84308;-72
2023/10/23 15:31:10;;;;;;;5.55;4.90;;;24.90;93.10;;;;;;6310893;27;84450;-72
2023/10/23 15:34:13;;;;;;;5.15;4.65;;;24.90;93.10;;;;;;6309139;27;84045;-72
2023/10/23 15:37:16;;;;;;;5.55;4.57;;;24.90;93.10;;;;;;6295469;27;83378;-71
2023/10/23 15:40:20;;;;;;;5.18;4.43;;;24.90;93.00;;;;;;6299615;27;85692;-72
2023/10/23 15:43:24;;;;;;;5.38;4.85;;;24.90;93.10;;;;;;6307745;27;84030;-72
2023/10/23 15:46:26;;;;;;;5.78;5.07;;;24.80;93.10;;;;;;6287064;27;83908;-71